createdAt,value
2018-04-19T00:00:09.585Z,7.03
2018-04-19T00:02:35.989Z,7.10
2018-04-19T00:05:02.248Z,7.60
2018-04-19T00:07:28.540Z,7.47
2018-04-19T00:09:54.779Z,7.37
2018-04-19T00:12:21.110Z,8.13
2018-04-19T00:14:47.357Z,8.20
2018-04-19T00:17:13.627Z,8.17
2018-04-19T00:19:40.226Z,8.47
2018-04-19T00:22:06.559Z,7.60
2018-04-19T00:24:32.960Z,8.23
2018-04-19T00:26:59.294Z,8.70
2018-04-19T00:29:25.586Z,7.77
2018-04-19T00:31:51.940Z,8.70
2018-04-19T00:34:18.231Z,7.10
2018-04-19T00:36:44.495Z,7.33
2018-04-19T00:39:11.595Z,7.40
2018-04-19T00:41:37.807Z,8.07
2018-04-19T00:44:04.096Z,7.63
2018-04-19T00:46:30.440Z,7.87
2018-04-19T00:48:56.743Z,7.97
2018-04-19T00:51:23.389Z,7.80
2018-04-19T00:53:49.850Z,8.90
2018-04-19T00:56:16.289Z,7.60
2018-04-19T00:58:42.952Z,7.80
2018-04-19T01:01:09.723Z,7.53
2018-04-19T01:03:36.059Z,7.50
2018-04-19T01:06:02.333Z,8.80
2018-04-19T01:08:28.729Z,8.70
2018-04-19T01:10:55.011Z,7.90
2018-04-19T01:13:21.295Z,8.30
2018-04-19T01:15:48.288Z,7.93
2018-04-19T01:18:14.507Z,7.60
2018-04-19T01:20:40.842Z,7.30
2018-04-19T01:23:07.171Z,7.77
2018-04-19T01:25:33.416Z,9.20
2018-04-19T01:27:59.613Z,9.17
2018-04-19T01:30:26.194Z,8.00
2018-04-19T01:32:53.160Z,9.00
2018-04-19T01:35:19.546Z,8.03
2018-04-19T01:37:46.236Z,7.17
2018-04-19T01:40:12.564Z,7.67
2018-04-19T01:42:38.926Z,7.33
2018-04-19T01:45:07.690Z,7.50
2018-04-19T01:47:33.960Z,8.77
2018-04-19T01:50:00.341Z,10.97
2018-04-19T01:52:26.647Z,9.30
2018-04-19T01:54:52.973Z,8.20
2018-04-19T01:57:19.366Z,8.03
2018-04-19T01:59:46.299Z,8.47
2018-04-19T02:02:12.572Z,7.50
2018-04-19T02:04:38.809Z,7.13
2018-04-19T02:07:06.329Z,6.90
2018-04-19T02:09:32.513Z,6.37
2018-04-19T02:11:58.788Z,7.00
2018-04-19T02:14:25.171Z,7.47
2018-04-19T02:16:51.426Z,6.90
2018-04-19T02:19:17.829Z,6.97
2018-04-19T02:21:44.037Z,6.37
2018-04-19T02:24:11.197Z,6.13
2018-04-19T02:26:37.555Z,6.47
2018-04-19T02:29:03.881Z,7.07
2018-04-19T02:31:30.855Z,6.70
2018-04-19T02:33:57.131Z,6.67
2018-04-19T02:36:23.426Z,6.70
2018-04-19T02:38:50.444Z,7.23
2018-04-19T02:41:17.012Z,6.40
2018-04-19T02:43:44.006Z,6.57
2018-04-19T02:46:11.047Z,7.20
2018-04-19T02:48:37.424Z,7.23
2018-04-19T02:51:03.664Z,7.23
2018-04-19T02:53:30.034Z,7.90
2018-04-19T02:55:56.453Z,6.80
2018-04-19T02:58:23.133Z,8.17
2018-04-19T03:00:49.472Z,8.00
2018-04-19T03:03:17.677Z,6.70
2018-04-19T03:05:44.347Z,8.00
2018-04-19T03:08:12.209Z,7.37
2018-04-19T03:10:38.547Z,6.80
2018-04-19T03:13:04.941Z,7.20
2018-04-19T03:15:31.206Z,8.17
2018-04-19T03:17:57.454Z,8.57
2018-04-19T03:20:23.821Z,8.00
2018-04-19T03:22:50.036Z,7.90
2018-04-19T03:25:16.291Z,8.13
2018-04-19T03:27:42.906Z,7.60
2018-04-19T03:30:09.999Z,7.73
2018-04-19T03:32:38.388Z,9.10
2018-04-19T03:35:04.666Z,7.77
2018-04-19T03:37:30.931Z,7.97
2018-04-19T03:39:58.108Z,8.50
2018-04-19T03:42:25.448Z,7.80
2018-04-19T03:44:51.791Z,7.50
2018-04-19T03:47:22.359Z,8.50
2018-04-19T03:49:48.652Z,8.17
2018-04-19T03:52:14.928Z,7.83
2018-04-19T03:54:41.204Z,8.80
2018-04-19T03:57:07.503Z,8.53
2018-04-19T03:59:33.792Z,8.83
2018-04-19T04:02:00.044Z,7.80
2018-04-19T04:04:26.336Z,8.47
2018-04-19T04:06:52.685Z,8.30
2018-04-19T04:09:20.072Z,8.60
2018-04-19T04:11:46.388Z,8.00
2018-04-19T04:14:12.702Z,9.00
2018-04-19T04:16:51.256Z,7.90
2018-04-19T04:19:29.880Z,8.63
2018-04-19T04:22:08.524Z,8.33
2018-04-19T04:24:34.977Z,9.20
2018-04-19T04:27:02.019Z,9.00
2018-04-19T04:29:28.424Z,8.50
2018-04-19T04:31:54.716Z,10.00
2018-04-19T04:34:21.647Z,8.87
2018-04-19T04:36:48.852Z,8.60
2018-04-19T04:39:15.068Z,9.40
2018-04-19T04:41:41.335Z,8.57
2018-04-19T04:44:07.630Z,8.00
2018-04-19T04:46:33.866Z,9.63
2018-04-19T04:49:00.839Z,8.40
2018-04-19T04:51:28.151Z,8.63
2018-04-19T04:53:54.471Z,9.40
2018-04-19T04:56:21.524Z,8.20
2018-04-19T04:58:47.724Z,8.87
2018-04-19T05:01:14.051Z,8.97
2018-04-19T05:03:49.120Z,10.00
2018-04-19T05:06:15.565Z,9.60
2018-04-19T05:08:41.812Z,9.57
2018-04-19T05:11:08.795Z,9.13
2018-04-19T05:13:35.114Z,9.00
2018-04-19T05:16:01.377Z,8.97
2018-04-19T05:18:27.643Z,9.00
2018-04-19T05:20:53.936Z,8.70
2018-04-19T05:23:20.198Z,9.10
2018-04-19T05:25:46.427Z,9.60
2018-04-19T05:28:12.845Z,9.67
2018-04-19T05:30:39.315Z,8.67
2018-04-19T05:33:05.576Z,9.33
2018-04-19T05:35:46.508Z,9.97
2018-04-19T05:38:13.565Z,9.93
2018-04-19T05:40:41.834Z,8.93
2018-04-19T05:43:09.126Z,10.00
2018-04-19T05:45:46.389Z,9.50
2018-04-19T05:48:12.653Z,9.00
2018-04-19T05:50:39.022Z,9.97
2018-04-19T05:53:05.470Z,9.23
2018-04-19T05:55:35.035Z,8.40
2018-04-19T05:58:01.354Z,10.47
2018-04-19T06:00:27.608Z,8.47
2018-04-19T06:02:53.848Z,9.87
2018-04-19T06:05:20.171Z,8.67
2018-04-19T06:07:46.820Z,8.90
2018-04-19T06:10:13.035Z,7.53
2018-04-19T06:12:39.310Z,8.13
2018-04-19T06:15:07.575Z,7.13
2018-04-19T06:17:41.231Z,8.43
2018-04-19T06:20:07.590Z,7.80
2018-04-19T06:22:33.824Z,9.37
2018-04-19T06:25:00.792Z,8.10
2018-04-19T06:27:27.091Z,7.33
2018-04-19T06:29:57.500Z,7.27
2018-04-19T06:32:24.728Z,7.60
2018-04-19T06:34:51.153Z,7.73
2018-04-19T06:37:17.443Z,6.77
2018-04-19T06:39:46.277Z,6.87
2018-04-19T06:42:12.540Z,7.03
2018-04-19T06:44:38.980Z,6.60
2018-04-19T06:47:05.413Z,7.00
2018-04-19T06:49:31.722Z,6.73
2018-04-19T06:51:58.063Z,6.50
2018-04-19T06:54:24.286Z,6.97
2018-04-19T06:56:50.583Z,6.17
2018-04-19T06:59:17.573Z,6.37
2018-04-19T07:01:43.841Z,6.23
2018-04-19T07:04:10.108Z,7.30
2018-04-19T07:06:36.518Z,7.80
2018-04-19T07:09:02.998Z,7.20
2018-04-19T07:11:29.206Z,7.30
2018-04-19T07:13:55.459Z,6.37
2018-04-19T07:16:21.878Z,6.70
2018-04-19T07:18:48.276Z,6.90
2018-04-19T07:21:15.323Z,6.43
2018-04-19T07:23:42.035Z,7.23
2018-04-19T07:26:08.295Z,6.60
2018-04-19T07:28:35.202Z,7.13
2018-04-19T07:31:01.608Z,6.67
2018-04-19T07:33:27.922Z,6.63
2018-04-19T07:35:54.174Z,6.93
2018-04-19T07:38:20.404Z,7.77
2018-04-19T07:40:46.706Z,8.43
2018-04-19T07:43:13.646Z,7.80
2018-04-19T07:45:39.880Z,8.70
2018-04-19T07:48:06.129Z,10.10
2018-04-19T07:50:32.384Z,8.40
2018-04-19T07:52:58.670Z,7.50
2018-04-19T07:55:24.919Z,7.97
2018-04-19T07:57:51.299Z,8.00
2018-04-19T08:00:17.540Z,8.40
2018-04-19T08:02:43.839Z,7.77
2018-04-19T08:05:10.108Z,8.60
2018-04-19T08:07:36.480Z,7.33
2018-04-19T08:10:04.760Z,8.90
2018-04-19T08:12:31.012Z,7.60
2018-04-19T08:14:57.287Z,7.93
2018-04-19T08:17:24.431Z,8.13
2018-04-19T08:19:51.590Z,8.10
2018-04-19T08:22:18.689Z,6.83
2018-04-19T08:24:44.986Z,9.10
2018-04-19T08:27:11.294Z,8.70
2018-04-19T08:29:37.929Z,7.40
2018-04-19T08:32:06.644Z,7.67
2018-04-19T08:34:32.905Z,7.90
2018-04-19T08:36:59.297Z,7.80
2018-04-19T08:39:25.813Z,7.23
2018-04-19T08:41:52.767Z,8.47
2018-04-19T08:44:18.978Z,8.00
2018-04-19T08:46:45.519Z,7.30
2018-04-19T08:49:11.729Z,7.30
2018-04-19T08:51:39.316Z,8.30
2018-04-19T08:54:05.536Z,8.17
2018-04-19T08:56:32.730Z,7.63
2018-04-19T08:58:58.950Z,7.10
2018-04-19T09:01:25.147Z,7.27
2018-04-19T09:03:51.373Z,7.83
2018-04-19T09:06:17.611Z,7.77
2018-04-19T09:08:43.940Z,6.83
2018-04-19T09:11:10.202Z,6.87
2018-04-19T09:13:36.454Z,8.03
2018-04-19T09:16:02.719Z,7.40
2018-04-19T09:18:29.791Z,7.50
2018-04-19T09:20:56.028Z,6.90
2018-04-19T09:23:22.986Z,6.63
2018-04-19T09:25:50.007Z,6.10
2018-04-19T09:28:16.380Z,6.50
2018-04-19T09:30:42.719Z,7.10
2018-04-19T09:33:08.980Z,6.33
2018-04-19T09:35:35.213Z,6.97
2018-04-19T09:38:02.367Z,6.83
2018-04-19T09:40:28.885Z,7.10
2018-04-19T09:42:55.104Z,6.93
2018-04-19T09:45:22.340Z,6.40
2018-04-19T09:47:48.757Z,5.83
2018-04-19T09:50:14.982Z,6.47
2018-04-19T09:52:41.173Z,6.77
2018-04-19T09:55:08.439Z,5.97
2018-04-19T09:57:35.137Z,6.03
2018-04-19T10:00:01.370Z,5.90
2018-04-19T10:02:28.821Z,6.33
2018-04-19T10:05:00.986Z,6.37
2018-04-19T10:07:27.307Z,5.50
2018-04-19T10:09:54.299Z,5.20
2018-04-19T10:12:21.772Z,5.90
2018-04-19T10:14:49.493Z,5.53
2018-04-19T10:17:16.442Z,5.50
2018-04-19T10:19:43.529Z,5.63
2018-04-19T10:22:10.549Z,5.80
2018-04-19T10:24:36.936Z,5.77
2018-04-19T10:27:03.299Z,5.40
2018-04-19T10:29:29.763Z,5.73
2018-04-19T10:31:55.986Z,6.20
2018-04-19T10:34:22.267Z,5.77
2018-04-19T10:36:48.804Z,5.90
2018-04-19T10:39:15.057Z,5.80
2018-04-19T10:41:41.356Z,6.23
2018-04-19T10:44:07.636Z,5.03
2018-04-19T10:46:33.920Z,5.03
2018-04-19T10:49:00.237Z,5.37
2018-04-19T10:51:26.458Z,5.50
2018-04-19T10:53:52.830Z,5.30
2018-04-19T10:56:19.896Z,5.33
2018-04-19T10:58:46.102Z,5.80
2018-04-19T11:01:12.551Z,4.77
2018-04-19T11:03:38.944Z,5.10
2018-04-19T11:06:05.201Z,4.40
2018-04-19T11:08:31.404Z,6.70
2018-04-19T11:10:57.647Z,5.10
2018-04-19T11:13:24.213Z,5.10
2018-04-19T11:15:51.275Z,4.80
2018-04-19T11:18:18.333Z,5.77
2018-04-19T11:20:45.192Z,5.07
2018-04-19T11:23:11.384Z,5.30
2018-04-19T11:25:38.451Z,4.50
2018-04-19T11:28:04.651Z,4.50
2018-04-19T11:30:31.645Z,7.60
2018-04-19T11:32:58.053Z,5.10
2018-04-19T11:35:24.483Z,5.03
2018-04-19T11:37:50.877Z,4.20
2018-04-19T11:40:17.105Z,4.07
2018-04-19T11:42:43.355Z,5.10
2018-04-19T11:45:09.698Z,4.93
2018-04-19T11:47:36.035Z,4.10
2018-04-19T11:50:02.402Z,3.50
2018-04-19T11:52:28.658Z,3.70
2018-04-19T11:54:56.939Z,4.57
2018-04-19T11:57:23.247Z,4.30
2018-04-19T11:59:49.785Z,3.73
2018-04-19T12:02:16.740Z,3.90
2018-04-19T12:04:43.054Z,3.70
2018-04-19T12:07:10.149Z,3.50
2018-04-19T12:09:41.889Z,3.50
2018-04-19T12:12:08.304Z,4.30
2018-04-19T12:14:34.776Z,3.47
2018-04-19T12:17:04.177Z,3.73
2018-04-19T12:22:32.979Z,3.20
2018-04-19T12:24:59.678Z,3.27
2018-04-19T12:27:28.111Z,2.90
2018-04-19T12:29:54.363Z,2.97
2018-04-19T12:32:20.836Z,4.10
2018-04-19T12:34:47.120Z,3.20
2018-04-19T12:37:13.375Z,3.17
2018-04-19T12:39:39.615Z,4.43
2018-04-19T12:42:06.660Z,3.40
2018-04-19T12:44:33.395Z,3.30
2018-04-19T12:46:59.826Z,2.70
2018-04-19T12:49:26.274Z,3.33
2018-04-19T12:51:53.014Z,3.20
2018-04-19T12:54:19.432Z,3.57
2018-04-19T12:56:45.725Z,2.73
2018-04-19T12:59:12.016Z,2.60
2018-04-19T13:01:40.015Z,3.07
2018-04-19T13:04:11.015Z,2.90
2018-04-19T13:06:37.519Z,2.80
2018-04-19T13:09:03.842Z,5.97
2018-04-19T13:11:30.147Z,3.50
2018-04-19T13:13:56.687Z,3.10
2018-04-19T13:16:22.972Z,3.07
2018-04-19T13:18:49.401Z,2.90
2018-04-19T13:21:16.364Z,2.85
2018-04-19T13:23:43.455Z,2.60
2018-04-19T13:26:10.101Z,2.80
2018-04-19T13:28:36.834Z,2.70
2018-04-19T13:31:03.104Z,3.00
2018-04-19T13:33:29.951Z,2.40
2018-04-19T13:35:56.176Z,2.70
2018-04-19T13:38:23.318Z,2.47
2018-04-19T13:40:50.912Z,2.97
2018-04-19T13:43:17.159Z,2.70
2018-04-19T13:45:45.019Z,2.80
2018-04-19T13:48:11.298Z,2.37
2018-04-19T13:50:37.543Z,2.20
2018-04-19T13:53:03.821Z,2.80
2018-04-19T13:55:30.248Z,2.50
2018-04-19T13:57:56.526Z,2.80
2018-04-19T14:00:23.144Z,3.77
2018-04-19T14:02:49.388Z,2.53
2018-04-19T14:05:15.739Z,2.50
2018-04-19T14:07:42.108Z,3.30
2018-04-19T14:10:10.464Z,3.37
2018-04-19T14:12:37.798Z,3.17
2018-04-19T14:15:05.180Z,3.07
2018-04-19T14:17:31.787Z,2.73
2018-04-19T14:19:59.129Z,3.20
2018-04-19T14:22:26.564Z,2.97
2018-04-19T14:24:54.983Z,3.07
2018-04-19T14:27:31.288Z,3.03
2018-04-19T14:29:58.824Z,3.17
2018-04-19T14:32:25.112Z,3.07
2018-04-19T14:34:51.403Z,3.20
2018-04-19T14:37:19.181Z,3.63
2018-04-19T14:39:46.471Z,2.90
2018-04-19T14:42:12.725Z,2.50
2018-04-19T14:44:39.023Z,2.90
2018-04-19T14:47:05.317Z,2.83
2018-04-19T14:49:31.555Z,3.00
2018-04-19T14:51:57.783Z,3.50
2018-04-19T14:54:24.082Z,3.47
2018-04-19T14:56:50.460Z,2.80
2018-04-19T14:59:17.816Z,2.70
2018-04-19T15:01:44.133Z,2.17
2018-04-19T15:04:10.407Z,2.90
2018-04-19T15:06:36.656Z,2.60
2018-04-19T15:09:03.091Z,2.50
2018-04-19T15:11:29.317Z,2.63
2018-04-19T15:13:55.709Z,2.70
2018-04-19T15:16:22.013Z,3.63
2018-04-19T15:18:48.251Z,2.87
2018-04-19T15:21:14.609Z,2.83
2018-04-19T15:23:41.623Z,3.23
2018-04-19T15:26:07.929Z,2.73
2018-04-19T15:28:34.751Z,3.03
2018-04-19T15:31:01.047Z,2.13
2018-04-19T15:33:29.000Z,3.20
2018-04-19T15:35:57.665Z,2.30
2018-04-19T15:38:30.340Z,2.50
2018-04-19T15:41:01.130Z,2.00
2018-04-19T15:46:32.033Z,3.47
2018-04-19T15:48:58.498Z,3.20
2018-04-19T15:51:31.576Z,2.57
2018-04-19T15:54:27.673Z,2.90
2018-04-19T15:56:54.450Z,4.80
2018-04-19T15:59:22.183Z,2.97
2018-04-19T16:02:00.290Z,2.23
2018-04-19T16:07:28.952Z,2.73
2018-04-19T16:10:06.564Z,2.53
2018-04-19T16:12:37.080Z,2.33
2018-04-19T16:15:08.317Z,3.13
2018-04-19T16:17:35.199Z,2.70
2018-04-19T16:20:01.879Z,2.47
2018-04-19T16:22:28.479Z,3.43
2018-04-19T16:24:55.970Z,2.90
2018-04-19T16:27:24.220Z,2.50
2018-04-19T16:29:51.657Z,2.40
2018-04-19T16:32:17.966Z,3.30
2018-04-19T16:34:44.186Z,4.80
2018-04-19T16:37:10.414Z,2.53
2018-04-19T16:39:36.620Z,2.40
2018-04-19T16:42:03.003Z,2.83
2018-04-19T16:44:29.252Z,3.30
2018-04-19T16:46:55.721Z,2.77
2018-04-19T16:49:21.962Z,2.30
2018-04-19T16:51:49.173Z,2.53
2018-04-19T16:54:15.518Z,2.70
2018-04-19T16:56:42.096Z,2.93
2018-04-19T16:59:09.493Z,3.30
2018-04-19T17:01:35.666Z,2.73
2018-04-19T17:04:02.421Z,2.97
2018-04-19T17:06:28.699Z,2.90
2018-04-19T17:08:54.935Z,3.20
2018-04-19T17:11:22.256Z,2.70
2018-04-19T17:13:49.275Z,2.50
2018-04-19T17:16:15.527Z,2.40
2018-04-19T17:18:41.755Z,2.83
2018-04-19T17:21:08.924Z,2.60
2018-04-19T17:23:35.139Z,2.73
2018-04-19T17:26:01.391Z,3.40
2018-04-19T17:28:27.638Z,2.90
2018-04-19T17:30:53.901Z,3.67
2018-04-19T17:33:20.252Z,3.10
2018-04-19T17:35:47.315Z,2.80
2018-04-19T17:38:13.629Z,3.47
2018-04-19T17:40:40.689Z,3.07
2018-04-19T17:43:06.990Z,2.90
2018-04-19T17:45:33.469Z,2.60
2018-04-19T17:47:59.857Z,2.90
2018-04-19T17:50:26.118Z,3.43
2018-04-19T17:55:24.384Z,3.33
2018-04-19T17:57:50.790Z,2.73
2018-04-19T18:00:17.169Z,2.63
2018-04-19T18:02:43.412Z,2.83
2018-04-19T18:05:09.781Z,3.03
2018-04-19T18:07:36.008Z,3.00
2018-04-19T18:10:02.380Z,3.27
2018-04-19T18:12:29.374Z,2.83
2018-04-19T18:14:55.704Z,3.67
2018-04-19T18:17:21.944Z,2.73
2018-04-19T18:19:48.145Z,3.80
2018-04-19T18:22:14.407Z,3.00
2018-04-19T18:24:40.730Z,3.10
2018-04-19T18:27:07.017Z,3.60
2018-04-19T18:29:33.250Z,3.20
2018-04-19T18:31:59.684Z,3.13
2018-04-19T18:34:26.667Z,3.47
2018-04-19T18:36:52.988Z,3.37
2018-04-19T18:39:19.251Z,3.80
2018-04-19T18:41:45.498Z,2.80
2018-04-19T18:44:11.795Z,4.50
2018-04-19T18:46:38.153Z,3.33
2018-04-19T18:49:05.309Z,3.63
2018-04-19T18:51:32.271Z,4.00
2018-04-19T18:53:58.892Z,3.23
2018-04-19T18:56:25.286Z,3.67
2018-04-19T18:58:51.612Z,3.50
2018-04-19T19:01:17.885Z,3.90
2018-04-19T19:03:44.088Z,4.27
2018-04-19T19:06:10.458Z,4.23
2018-04-19T19:08:36.895Z,3.70
2018-04-19T19:11:03.922Z,4.50
2018-04-19T19:13:30.289Z,4.27
2018-04-19T19:16:12.170Z,3.90
2018-04-19T19:18:50.592Z,3.60
2018-04-19T19:21:16.834Z,3.50
2018-04-19T19:23:43.276Z,4.07
2018-04-19T19:26:09.497Z,4.50
2018-04-19T19:28:35.741Z,3.70
2018-04-19T19:31:02.184Z,3.93
2018-04-19T19:33:28.565Z,4.30
2018-04-19T19:35:54.831Z,4.93
2018-04-19T19:38:21.173Z,4.60
2018-04-19T19:40:48.249Z,4.37
2018-04-19T19:43:14.525Z,4.40
2018-04-19T19:45:40.729Z,4.20
2018-04-19T19:48:08.700Z,4.30
2018-04-19T19:50:34.928Z,4.00
2018-04-19T19:53:01.263Z,4.40
2018-04-19T19:55:28.371Z,4.63
2018-04-19T19:57:54.759Z,4.00
2018-04-19T20:00:21.192Z,4.43
2018-04-19T20:02:47.458Z,3.70
2018-04-19T20:05:13.678Z,4.77
2018-04-19T20:07:39.871Z,4.60
2018-04-19T20:10:07.867Z,4.70
2018-04-19T20:12:34.184Z,4.13
2018-04-19T20:15:01.377Z,5.37
2018-04-19T20:17:27.652Z,5.33
2018-04-19T20:19:53.892Z,6.13
2018-04-19T20:22:20.150Z,5.37
2018-04-19T20:24:46.579Z,5.17
2018-04-19T20:27:12.908Z,5.50
2018-04-19T20:29:39.477Z,4.57
2018-04-19T20:32:05.808Z,5.40
2018-04-19T20:34:32.996Z,5.93
2018-04-19T20:36:59.809Z,5.27
2018-04-19T20:39:26.074Z,5.87
2018-04-19T20:41:53.376Z,4.60
2018-04-19T20:44:19.670Z,4.13
2018-04-19T20:46:46.859Z,5.00
2018-04-19T20:49:13.175Z,4.73
2018-04-19T20:51:40.445Z,4.63
2018-04-19T20:54:06.841Z,4.47
2018-04-19T20:56:35.484Z,4.90
2018-04-19T20:59:01.821Z,4.07
2018-04-19T21:01:28.119Z,5.63
2018-04-19T21:03:54.380Z,4.80
2018-04-19T21:06:21.999Z,4.90
2018-04-19T21:08:48.331Z,4.80
2018-04-19T21:11:14.672Z,4.60
2018-04-19T21:13:40.929Z,5.37
2018-04-19T21:16:07.303Z,4.70
2018-04-19T21:18:33.600Z,5.00
2018-04-19T21:21:01.905Z,4.17
2018-04-19T21:23:28.240Z,4.27
2018-04-19T21:25:54.516Z,4.20
2018-04-19T21:28:20.772Z,5.60
2018-04-19T21:30:47.131Z,4.80
2018-04-19T21:33:13.521Z,4.60
2018-04-19T21:35:39.960Z,5.23
2018-04-19T21:38:06.223Z,4.57
2018-04-19T21:40:32.463Z,5.33
2018-04-19T21:42:59.754Z,4.43
2018-04-19T21:45:26.024Z,4.70
2018-04-19T21:47:52.259Z,5.30
2018-04-19T21:50:18.727Z,5.23
2018-04-19T21:52:45.402Z,4.73
2018-04-19T21:55:12.091Z,6.00
2018-04-19T21:57:39.398Z,6.13
2018-04-19T22:00:05.696Z,5.40
2018-04-19T22:02:31.953Z,6.00
2018-04-19T22:04:58.382Z,4.70
2018-04-19T22:07:24.791Z,5.13
2018-04-19T22:09:51.088Z,5.00
2018-04-19T22:12:17.439Z,4.70
2018-04-19T22:14:44.549Z,6.27
2018-04-19T22:17:10.862Z,6.33
2018-04-19T22:19:37.155Z,5.80
2018-04-19T22:22:03.582Z,5.10
2018-04-19T22:24:29.852Z,5.50
2018-04-19T22:26:56.828Z,5.93
2018-04-19T22:29:23.170Z,5.30
2018-04-19T22:31:49.421Z,4.73
2018-04-19T22:34:15.618Z,4.77
2018-04-19T22:36:41.914Z,4.97
2018-04-19T22:39:09.956Z,5.57
2018-04-19T22:41:38.088Z,5.40
2018-04-19T22:44:04.368Z,5.60
2018-04-19T22:46:30.927Z,5.67
2018-04-19T22:48:57.609Z,5.70
2018-04-19T22:51:23.899Z,5.43
2018-04-19T22:53:50.194Z,5.20
2018-04-19T22:56:17.207Z,5.60
2018-04-19T22:58:43.464Z,5.77
2018-04-19T23:01:09.725Z,5.57
2018-04-19T23:03:35.948Z,5.93
2018-04-19T23:06:02.162Z,5.27
2018-04-19T23:08:28.423Z,5.50
2018-04-19T23:10:54.729Z,5.40
2018-04-19T23:13:20.991Z,6.43
2018-04-19T23:15:47.572Z,5.57
2018-04-19T23:18:14.116Z,5.77
2018-04-19T23:20:40.719Z,6.20
2018-04-19T23:23:07.260Z,5.97
2018-04-19T23:25:33.508Z,6.37
2018-04-19T23:27:59.815Z,6.00
2018-04-19T23:30:26.003Z,6.53
2018-04-19T23:32:53.253Z,5.80
2018-04-19T23:35:19.623Z,6.47
2018-04-19T23:37:45.899Z,6.47
2018-04-19T23:40:12.120Z,6.60
2018-04-19T23:42:38.383Z,6.43
2018-04-19T23:45:04.769Z,6.68
2018-04-19T23:47:31.060Z,7.07
2018-04-19T23:49:57.290Z,6.60
2018-04-19T23:52:23.611Z,5.80
2018-04-19T23:54:49.920Z,6.50
2018-04-19T23:57:16.900Z,6.30
2018-04-19T23:59:43.127Z,6.40
